Time;durP1;ratioP1;P1;durP2;ratioP2;P2;SDS_P1;SDS_P2;PMS_P1;PMS_P2;Temp;Humidity;BMP_temperature;BMP_pressure;BME280_temperature;BME280_humidity;BME280_pressure;Samples;Min_cycle;Max_cycle;Signal;HPM_P1;HPM_P2
2022/01/25 00:08:43;;;;;;;0.22;0.22;;;0.50;99.90;;;;;;5055479;28;20083;-63
2022/01/25 00:25:04;;;;;;;0.82;0.55;;;0.50;99.90;;;;;;5053999;28;20473;-63
2022/01/25 00:27:41;;;;;;;3.17;2.88;;;0.50;99.90;;;;;;5053613;28;20036;-63
2022/01/25 00:31:00;;;;;;;0.15;0.15;;;0.50;99.90;;;;;;5070176;28;20423;-63
2022/01/25 00:32:57;;;;;;;0.10;0.10;;;0.50;99.90;;;;;;5047810;28;20149;-62
2022/01/25 00:35:23;;;;;;;0.30;0.30;;;0.50;99.90;;;;;;5054791;28;20117;-62
2022/01/25 00:37:50;;;;;;;0.77;0.77;;;0.40;99.90;;;;;;5054903;28;20029;-63
2022/01/25 00:40:15;;;;;;;2.53;1.33;;;0.40;99.90;;;;;;5054338;28;20032;-63
2022/01/25 00:42:41;;;;;;;0.10;0.10;;;0.30;99.90;;;;;;5053322;28;20119;-63
2022/01/25 00:45:10;;;;;;;2.72;0.90;;;0.20;99.90;;;;;;5053143;28;20033;-63
2022/01/25 00:47:36;;;;;;;0.43;0.43;;;0.20;99.90;;;;;;5054499;28;20112;-63
2022/01/25 00:50:01;;;;;;;1.35;1.15;;;0.10;99.90;;;;;;5054190;28;20125;-63
2022/01/25 00:55:13;;;;;;;0.13;0.13;;;0.10;99.90;;;;;;5054184;28;20231;-63
2022/01/25 00:57:40;;;;;;;3.40;2.70;;;0.00;99.90;;;;;;5054586;28;20033;-63
2022/01/25 01:00:10;;;;;;;0.10;0.10;;;0.00;99.90;;;;;;5052841;28;20032;-62
2022/01/25 01:02:35;;;;;;;0.20;0.20;;;0.00;99.90;;;;;;5053227;28;20034;-63
2022/01/25 01:05:03;;;;;;;0.50;0.50;;;0.00;99.90;;;;;;5054364;28;20474;-62
2022/01/25 01:07:29;;;;;;;0.50;0.50;;;0.00;99.90;;;;;;5052952;28;20374;-63
2022/01/25 01:09:55;;;;;;;0.10;0.10;;;0.00;99.90;;;;;;5054317;28;20029;-62
2022/01/25 01:13:26;;;;;;;0.28;0.28;;;-0.10;99.90;;;;;;5053997;28;20046;-62
2022/01/25 01:15:25;;;;;;;0.10;0.10;;;-0.10;99.90;;;;;;5052044;28;20524;-62
2022/01/25 01:42:34;;;;;;;3.60;3.00;;;-0.20;99.90;;;;;;5053374;28;20029;-63
2022/01/25 01:47:38;;;;;;;0.20;0.20;;;-0.20;99.90;;;;;;5051820;28;20033;-62
2022/01/25 01:50:12;;;;;;;0.20;0.20;;;-0.20;99.90;;;;;;5053036;28;20025;-63
2022/01/25 01:52:38;;;;;;;0.93;0.93;;;-0.20;99.90;;;;;;5035338;28;20033;-63
2022/01/25 01:55:06;;;;;;;0.38;0.38;;;-0.20;99.90;;;;;;5053094;28;20033;-63
2022/01/25 01:57:32;;;;;;;1.40;1.30;;;-0.20;99.90;;;;;;5052963;28;20154;-63
2022/01/25 01:59:58;;;;;;;6.28;1.95;;;-0.20;99.90;;;;;;5051838;28;20390;-63
2022/01/25 02:02:24;;;;;;;1.45;1.35;;;-0.20;99.90;;;;;;5052912;28;20029;-63
2022/01/25 02:04:50;;;;;;;3.40;0.73;;;-0.20;99.90;;;;;;5051769;28;20036;-63
2022/01/25 02:07:16;;;;;;;0.20;0.20;;;-0.30;99.90;;;;;;5052702;28;20060;-63
2022/01/25 02:09:42;;;;;;;0.85;0.85;;;-0.30;99.90;;;;;;5053157;28;20040;-63
2022/01/25 02:12:08;;;;;;;0.28;0.28;;;-0.30;99.90;;;;;;5052634;28;20355;-63
2022/01/25 02:14:36;;;;;;;0.68;0.68;;;-0.40;99.90;;;;;;5053083;28;20047;-63
2022/01/25 02:23:11;;;;;;;0.45;0.45;;;-0.50;99.90;;;;;;5051439;28;20037;-63
2022/01/25 02:25:37;;;;;;;0.60;0.60;;;-0.50;99.90;;;;;;5052217;28;20065;-63
2022/01/25 02:28:03;;;;;;;0.28;0.28;;;-0.60;99.90;;;;;;5052667;28;20114;-63
2022/01/25 02:30:29;;;;;;;1.13;1.08;;;-0.60;99.90;;;;;;5052469;28;20056;-63
2022/01/25 02:32:55;;;;;;;0.17;0.17;;;-0.60;99.90;;;;;;5050953;28;20056;-63
2022/01/25 02:35:20;;;;;;;4.97;1.40;;;-0.60;99.90;;;;;;5050914;28;20040;-63
2022/01/25 02:37:46;;;;;;;2.60;1.88;;;-0.50;99.90;;;;;;5052320;28;20111;-63
2022/01/25 02:40:12;;;;;;;0.35;0.35;;;-0.60;99.90;;;;;;5052312;28;20033;-64
2022/01/25 02:42:37;;;;;;;0.55;0.55;;;-0.60;99.90;;;;;;5051283;28;20032;-63
2022/01/25 02:45:04;;;;;;;0.20;0.20;;;-0.60;99.90;;;;;;5052014;28;20496;-63
2022/01/25 02:50:13;;;;;;;0.88;0.85;;;-0.40;99.90;;;;;;5052011;28;20048;-63
2022/01/25 02:52:39;;;;;;;0.57;0.57;;;-0.30;99.90;;;;;;5051688;28;20028;-62
2022/01/25 02:55:06;;;;;;;0.30;0.30;;;-0.30;99.90;;;;;;5051974;28;20032;-63
2022/01/25 02:57:31;;;;;;;0.25;0.25;;;-0.20;99.90;;;;;;5050878;28;20051;-63
2022/01/25 03:00:06;;;;;;;0.30;0.30;;;-0.20;99.90;;;;;;5051660;28;20025;-63
2022/01/25 03:02:31;;;;;;;0.50;0.50;;;-0.30;99.90;;;;;;5034595;28;20029;-63
2022/01/25 03:04:57;;;;;;;0.10;0.10;;;-0.40;99.90;;;;;;5051993;28;20500;-63
2022/01/25 03:07:23;;;;;;;0.20;0.20;;;-0.50;99.90;;;;;;5033399;28;20037;-63
2022/01/25 03:09:53;;;;;;;0.30;0.30;;;-0.60;99.90;;;;;;5050437;28;20110;-63
2022/01/25 03:12:30;;;;;;;0.47;0.47;;;-0.80;99.90;;;;;;5050360;28;20029;-63
2022/01/25 03:15:22;;;;;;;6.72;2.85;;;-0.80;99.90;;;;;;5050421;28;20067;-63
2022/01/25 03:17:53;;;;;;;0.10;0.10;;;-0.90;99.90;;;;;;5051513;28;20037;-63
2022/01/25 03:20:32;;;;;;;0.28;0.28;;;-0.90;99.90;;;;;;5050437;28;20033;-63
2022/01/25 03:23:05;;;;;;;0.13;0.13;;;-0.90;99.90;;;;;;5050221;28;20111;-63
2022/01/25 03:25:31;;;;;;;1.95;1.27;;;-0.80;99.90;;;;;;5050598;28;20033;-63
2022/01/25 03:27:58;;;;;;;2.03;1.27;;;-0.80;99.90;;;;;;5051972;28;20043;-63
2022/01/25 03:30:25;;;;;;;0.60;0.60;;;-0.90;99.90;;;;;;5049944;28;20071;-63
2022/01/25 03:32:51;;;;;;;0.40;0.40;;;-1.00;99.90;;;;;;5051164;28;20045;-63
2022/01/25 03:35:17;;;;;;;0.25;0.25;;;-1.00;99.90;;;;;;5050074;28;20045;-63
2022/01/25 03:37:42;;;;;;;1.20;1.13;;;-1.00;99.90;;;;;;5053524;28;20032;-63
2022/01/25 03:40:10;;;;;;;0.47;0.47;;;-1.00;99.90;;;;;;5055561;28;20433;-63
2022/01/25 03:42:38;;;;;;;0.25;0.25;;;-1.00;99.90;;;;;;5055802;28;20029;-62
2022/01/25 03:45:06;;;;;;;0.80;0.80;;;-1.00;99.90;;;;;;5055281;28;20039;-64
2022/01/25 03:47:45;;;;;;;0.10;0.10;;;-1.00;99.90;;;;;;5055283;28;20075;-63
2022/01/25 03:50:11;;;;;;;0.25;0.25;;;-1.00;99.90;;;;;;5054050;28;20085;-63
2022/01/25 03:52:37;;;;;;;1.25;1.08;;;-1.00;99.90;;;;;;5055539;28;20036;-63
2022/01/25 03:55:05;;;;;;;0.40;0.40;;;-1.10;99.90;;;;;;5055179;28;20071;-63
2022/01/25 03:57:31;;;;;;;0.28;0.28;;;-1.10;99.90;;;;;;5055604;28;20033;-62
2022/01/25 03:59:59;;;;;;;1.65;1.55;;;-1.10;99.90;;;;;;5055283;28;20656;-63
2022/01/25 04:02:28;;;;;;;0.80;0.80;;;-1.10;99.90;;;;;;5054956;28;20409;-63
2022/01/25 04:04:54;;;;;;;0.10;0.10;;;-1.10;99.90;;;;;;5055419;28;20078;-64
2022/01/25 04:07:29;;;;;;;0.10;0.10;;;-1.20;99.90;;;;;;5055063;28;20078;-63
2022/01/25 04:09:54;;;;;;;0.20;0.20;;;-1.20;99.90;;;;;;5055251;28;20040;-63
2022/01/25 04:12:20;;;;;;;1.25;1.20;;;-1.20;99.90;;;;;;5054783;28;20029;-64
2022/01/25 04:14:46;;;;;;;0.13;0.13;;;-1.20;99.90;;;;;;5053679;28;20482;-63
2022/01/25 04:17:17;;;;;;;0.43;0.43;;;-1.20;99.90;;;;;;5055024;28;20033;-64
2022/01/25 04:19:47;;;;;;;0.65;0.65;;;-1.10;99.90;;;;;;5053912;28;20029;-63
2022/01/25 04:25:06;;;;;;;0.40;0.40;;;-1.20;99.90;;;;;;5054871;28;20053;-63
2022/01/25 04:27:33;;;;;;;0.10;0.10;;;-1.20;99.90;;;;;;5053769;28;20041;-63
2022/01/25 04:29:59;;;;;;;0.10;0.10;;;-1.30;99.90;;;;;;5053378;28;20424;-63
2022/01/25 04:32:43;;;;;;;0.10;0.10;;;-1.40;99.90;;;;;;5054334;28;20045;-63
2022/01/25 04:35:27;;;;;;;0.17;0.17;;;-1.40;99.90;;;;;;5054158;28;20032;-63
2022/01/25 04:54:08;;;;;;;0.10;0.10;;;-1.60;99.90;;;;;;5053141;28;20431;-62
2022/01/25 04:59:28;;;;;;;0.20;0.20;;;-1.60;99.90;;;;;;5054245;28;20036;-62
2022/01/25 05:01:47;;;;;;;0.95;0.95;;;-1.80;99.90;;;;;;5053720;28;20052;-63
2022/01/25 05:04:24;;;;;;;1.00;0.70;;;-1.90;99.90;;;;;;5056546;28;20032;-64
2022/01/25 05:06:53;;;;;;;0.50;0.50;;;-1.80;99.90;;;;;;5074086;28;20044;-63
2022/01/25 05:09:20;;;;;;;0.57;0.57;;;-1.70;99.90;;;;;;5073973;28;20097;-63
2022/01/25 05:11:49;;;;;;;0.17;0.17;;;-1.80;99.90;;;;;;5069524;28;20033;-63
2022/01/25 05:14:24;;;;;;;0.40;0.40;;;-1.70;99.90;;;;;;5073161;28;20102;-63
2022/01/25 05:16:57;;;;;;;0.20;0.20;;;-1.70;99.90;;;;;;5055636;28;20036;-62
2022/01/25 05:22:03;;;;;;;0.20;0.20;;;-1.70;99.90;;;;;;5072597;28;20029;-62
2022/01/25 05:22:28;;;;;;;0.45;0.45;;;-1.60;99.90;;;;;;5068587;28;20086;-63
2022/01/25 05:24:55;;;;;;;0.65;0.65;;;-1.20;99.90;;;;;;5052701;28;20029;-64
2022/01/25 05:27:27;;;;;;;0.77;0.77;;;-0.40;99.90;;;;;;5053882;28;20529;-64
2022/01/25 05:29:53;;;;;;;1.23;1.13;;;-0.40;99.90;;;;;;5053707;28;20040;-65
2022/01/25 05:32:19;;;;;;;1.33;0.55;;;-0.60;99.90;;;;;;5052059;28;20037;-64
2022/01/25 05:34:45;;;;;;;0.20;0.20;;;-0.60;99.90;;;;;;5053515;28;20044;-64
2022/01/25 05:37:11;;;;;;;0.20;0.20;;;-0.80;99.90;;;;;;5053577;28;20058;-64
2022/01/25 05:39:37;;;;;;;3.78;2.13;;;-1.00;99.90;;;;;;5063808;28;20037;-63
2022/01/25 05:44:54;;;;;;;5.13;2.00;;;-1.10;99.90;;;;;;5073425;28;20621;-64
2022/01/25 05:47:29;;;;;;;2.90;2.65;;;-1.20;99.90;;;;;;5072915;28;20056;-64
2022/01/25 05:49:56;;;;;;;1.08;1.08;;;-1.00;99.90;;;;;;5072141;28;20086;-63
2022/01/25 05:52:23;;;;;;;9.82;8.98;;;-0.90;99.90;;;;;;5071760;28;20035;-63
2022/01/25 05:54:48;;;;;;;4.47;4.13;;;-1.00;99.90;;;;;;5071541;28;20064;-63
2022/01/25 05:57:14;;;;;;;4.47;1.33;;;-1.00;99.90;;;;;;5071669;28;20071;-63
2022/01/25 05:59:40;;;;;;;0.40;0.40;;;-1.00;99.90;;;;;;5072130;28;20374;-63
2022/01/25 06:02:06;;;;;;;0.10;0.10;;;-1.00;99.90;;;;;;5071628;28;20032;-63
2022/01/25 06:04:32;;;;;;;4.55;2.70;;;-1.00;99.90;;;;;;5072892;28;20032;-64
2022/01/25 06:06:58;;;;;;;20.75;1.75;;;-1.20;99.90;;;;;;5071682;28;20033;-64
2022/01/25 06:09:24;;;;;;;0.65;0.65;;;-1.40;99.90;;;;;;5072856;28;20029;-64
2022/01/25 06:11:55;;;;;;;0.30;0.30;;;-1.50;99.90;;;;;;5072629;28;20029;-64
2022/01/25 06:14:22;;;;;;;1.70;1.60;;;-1.60;99.90;;;;;;5072561;28;20024;-63
2022/01/25 06:16:48;;;;;;;0.45;0.45;;;-1.80;99.90;;;;;;5071310;28;20028;-65
2022/01/25 06:19:13;;;;;;;2.53;1.05;;;-1.80;99.90;;;;;;5072394;28;20395;-64
2022/01/25 06:21:39;;;;;;;0.20;0.20;;;-1.70;99.90;;;;;;5072248;28;20047;-64
2022/01/25 06:24:05;;;;;;;0.25;0.25;;;-1.70;99.90;;;;;;5072599;28;20033;-64
2022/01/25 06:26:31;;;;;;;0.75;0.73;;;-1.70;99.90;;;;;;5072213;28;20028;-65
2022/01/25 06:28:57;;;;;;;4.28;1.45;;;-1.60;99.90;;;;;;5072225;28;20030;-64
2022/01/25 06:31:23;;;;;;;0.10;0.10;;;-1.60;99.90;;;;;;5053573;28;20515;-63
2022/01/25 06:33:49;;;;;;;1.70;1.60;;;-1.60;99.90;;;;;;5071877;28;20033;-64
2022/01/25 06:36:15;;;;;;;0.40;0.40;;;-1.60;99.90;;;;;;5070657;28;20047;-64
2022/01/25 06:38:42;;;;;;;3.42;2.40;;;-1.60;99.90;;;;;;5071702;28;20029;-64
2022/01/25 06:41:10;;;;;;;2.05;1.95;;;-1.60;99.90;;;;;;5071845;28;20029;-64
2022/01/25 06:43:37;;;;;;;0.85;0.85;;;-1.60;99.90;;;;;;5071775;28;20655;-64
2022/01/25 06:46:03;;;;;;;0.95;0.88;;;-1.40;99.90;;;;;;5071463;28;20039;-64
2022/01/25 06:48:31;;;;;;;0.20;0.20;;;-1.40;99.90;;;;;;5071641;28;20040;-64
2022/01/25 06:50:58;;;;;;;1.00;1.00;;;-1.30;99.90;;;;;;5071884;28;20051;-64
2022/01/25 06:53:25;;;;;;;0.47;0.47;;;-1.30;99.90;;;;;;5071936;28;20535;-64
2022/01/25 06:55:50;;;;;;;0.88;0.88;;;-1.30;99.90;;;;;;5071981;28;20049;-66
2022/01/25 06:58:16;;;;;;;0.10;0.10;;;-1.30;99.90;;;;;;5071451;28;20032;-64
2022/01/25 07:00:48;;;;;;;0.13;0.13;;;-1.20;99.90;;;;;;5072027;28;20036;-66
2022/01/25 07:03:17;;;;;;;0.17;0.17;;;-1.20;99.90;;;;;;5070650;28;20102;-67
2022/01/25 07:05:46;;;;;;;7.95;1.83;;;-1.10;99.90;;;;;;5070769;28;20032;-65
2022/01/25 07:08:11;;;;;;;0.57;0.57;;;-1.00;99.90;;;;;;5071931;28;20550;-64
2022/01/25 07:10:37;;;;;;;0.28;0.28;;;-1.00;99.90;;;;;;5071499;28;20032;-64
2022/01/25 07:13:03;;;;;;;0.15;0.15;;;-1.00;99.90;;;;;;5070982;28;20041;-64
2022/01/25 07:15:29;;;;;;;2.83;2.63;;;-0.90;99.90;;;;;;5071516;28;20040;-64
2022/01/25 07:17:54;;;;;;;0.10;0.10;;;-0.90;99.90;;;;;;5069649;28;20031;-64
2022/01/25 07:20:20;;;;;;;0.10;0.10;;;-0.80;99.90;;;;;;5071658;28;20040;-64
2022/01/25 07:22:46;;;;;;;1.55;1.45;;;-0.80;99.90;;;;;;5071395;28;20045;-64
2022/01/25 07:25:13;;;;;;;1.88;1.75;;;-0.80;99.90;;;;;;5071399;28;20033;-64
2022/01/25 07:27:39;;;;;;;0.55;0.55;;;-0.80;99.90;;;;;;5071426;28;20464;-64
2022/01/25 07:30:07;;;;;;;2.67;2.50;;;-0.90;99.90;;;;;;5071648;28;20028;-64
2022/01/25 07:32:33;;;;;;;1.58;1.50;;;-0.90;99.90;;;;;;5071090;28;20078;-64
2022/01/25 07:34:59;;;;;;;0.25;0.25;;;-0.90;99.90;;;;;;5071558;28;20028;-64
2022/01/25 07:37:25;;;;;;;1.20;1.15;;;-0.90;99.90;;;;;;5071413;28;20469;-64
2022/01/25 07:39:51;;;;;;;0.88;0.88;;;-0.90;99.90;;;;;;5071462;28;20041;-64
2022/01/25 07:42:18;;;;;;;3.58;3.30;;;-0.90;99.90;;;;;;5071397;28;20116;-65
2022/01/25 07:44:44;;;;;;;0.20;0.20;;;-0.90;99.90;;;;;;5071252;28;20033;-66
2022/01/25 07:47:10;;;;;;;0.40;0.40;;;-0.90;99.90;;;;;;5071214;28;20040;-66
2022/01/25 07:49:36;;;;;;;0.32;0.32;;;-0.80;99.90;;;;;;5071089;28;20076;-66
2022/01/25 07:52:04;;;;;;;3.63;1.48;;;-0.80;99.90;;;;;;5070935;28;20507;-65
2022/01/25 07:54:30;;;;;;;0.20;0.20;;;-0.70;99.90;;;;;;5071324;28;20029;-66
2022/01/25 07:56:56;;;;;;;0.90;0.73;;;-0.70;99.90;;;;;;5071395;28;20033;-65
2022/01/25 07:59:22;;;;;;;1.05;1.05;;;-0.70;99.90;;;;;;5071144;28;20078;-67
2022/01/25 08:01:49;;;;;;;0.50;0.50;;;-0.70;99.90;;;;;;5070129;28;20036;-66
2022/01/25 08:04:15;;;;;;;0.80;0.80;;;-0.70;99.90;;;;;;5069948;28;20025;-65
2022/01/25 08:06:42;;;;;;;0.93;0.93;;;-0.60;99.90;;;;;;5069799;28;20508;-65
2022/01/25 08:09:11;;;;;;;1.52;1.45;;;-0.50;99.90;;;;;;5071248;28;20032;-65
2022/01/25 08:11:43;;;;;;;0.28;0.28;;;-0.50;99.90;;;;;;5071173;28;20043;-66
2022/01/25 08:14:14;;;;;;;3.65;2.08;;;-0.50;99.90;;;;;;5069991;28;20047;-65
2022/01/25 08:16:58;;;;;;;0.35;0.35;;;-0.50;99.90;;;;;;5071117;28;20493;-67
2022/01/25 08:19:23;;;;;;;4.80;4.38;;;-0.40;99.90;;;;;;5052916;28;20159;-66
2022/01/25 08:21:49;;;;;;;7.70;4.50;;;-0.30;99.90;;;;;;5069949;28;20115;-67
2022/01/25 08:24:20;;;;;;;6.22;3.97;;;-0.20;99.90;;;;;;5073238;28;20035;-65
2022/01/25 08:26:47;;;;;;;2.33;2.22;;;-0.20;99.90;;;;;;5074936;28;20047;-65
2022/01/25 08:29:13;;;;;;;0.35;0.35;;;-0.20;99.90;;;;;;5074987;28;20060;-67
2022/01/25 08:31:40;;;;;;;0.50;0.50;;;-0.20;99.90;;;;;;5073176;28;20197;-66
2022/01/25 08:34:08;;;;;;;1.38;1.33;;;0.00;99.90;;;;;;5073510;28;20028;-65
2022/01/25 08:36:35;;;;;;;2.53;2.22;;;0.10;99.90;;;;;;5074123;28;20081;-65
2022/01/25 08:39:04;;;;;;;0.60;0.60;;;0.10;99.90;;;;;;5074650;28;20089;-66
2022/01/25 08:41:31;;;;;;;2.08;1.48;;;0.20;99.90;;;;;;5074439;28;20507;-65
2022/01/25 08:44:00;;;;;;;3.30;2.90;;;0.30;99.90;;;;;;5074432;28;20048;-65
2022/01/25 08:46:26;;;;;;;3.33;3.05;;;0.20;99.90;;;;;;5072790;28;20485;-65
2022/01/25 08:48:52;;;;;;;2.25;2.15;;;0.20;99.90;;;;;;5074032;28;20032;-65
2022/01/25 08:51:18;;;;;;;0.85;0.85;;;0.40;99.90;;;;;;5073138;28;20055;-64
2022/01/25 08:53:44;;;;;;;0.70;0.70;;;0.50;99.90;;;;;;5074289;28;20115;-66
2022/01/25 08:56:19;;;;;;;0.73;0.73;;;0.40;99.90;;;;;;5074007;28;20491;-66
2022/01/25 08:58:47;;;;;;;1.33;1.33;;;0.50;99.90;;;;;;5073974;28;20037;-66
2022/01/25 09:01:13;;;;;;;2.55;2.40;;;0.40;99.90;;;;;;5073091;28;20025;-65
2022/01/25 09:03:39;;;;;;;3.13;2.85;;;0.30;99.90;;;;;;5073732;28;20029;-66
2022/01/25 09:06:05;;;;;;;11.18;4.35;;;0.40;99.90;;;;;;5072900;28;20518;-66
2022/01/25 09:08:31;;;;;;;1.15;1.15;;;0.40;99.90;;;;;;5089574;28;20043;-65
2022/01/25 09:10:59;;;;;;;0.75;0.75;;;0.40;99.90;;;;;;5072755;28;20086;-66
2022/01/25 09:13:30;;;;;;;1.77;1.55;;;0.30;99.90;;;;;;5071799;28;20043;-66
2022/01/25 09:15:56;;;;;;;1.97;1.83;;;0.40;99.90;;;;;;5074019;28;20078;-67
2022/01/25 09:18:28;;;;;;;8.25;2.17;;;0.50;99.90;;;;;;5089234;28;20031;-66
2022/01/25 09:20:55;;;;;;;2.15;2.05;;;0.50;99.90;;;;;;5074004;28;20090;-66
2022/01/25 09:23:23;;;;;;;0.28;0.28;;;0.40;99.90;;;;;;5073731;28;20056;-66
2022/01/25 09:25:50;;;;;;;1.67;1.60;;;0.50;99.90;;;;;;5073767;28;20475;-64
2022/01/25 09:28:17;;;;;;;1.35;1.25;;;0.60;99.90;;;;;;5073564;28;20036;-65
2022/01/25 09:30:44;;;;;;;5.97;5.45;;;0.60;99.90;;;;;;5073570;28;20479;-66
2022/01/25 09:33:09;;;;;;;4.55;1.75;;;0.50;99.90;;;;;;5073213;28;20118;-66
2022/01/25 09:35:36;;;;;;;2.38;1.30;;;0.60;99.90;;;;;;5072435;28;20025;-66
2022/01/25 09:38:05;;;;;;;0.38;0.38;;;0.70;99.90;;;;;;5073662;28;20086;-66
2022/01/25 09:40:32;;;;;;;0.75;0.75;;;0.60;99.90;;;;;;5073366;28;20028;-66
2022/01/25 09:42:58;;;;;;;3.03;1.80;;;0.60;99.90;;;;;;5073350;28;20033;-66
2022/01/25 09:45:25;;;;;;;1.35;1.27;;;0.70;99.90;;;;;;5072856;28;20367;-66
2022/01/25 09:47:52;;;;;;;9.93;2.08;;;0.70;99.90;;;;;;5073085;28;20036;-66
2022/01/25 09:50:26;;;;;;;1.98;1.88;;;0.70;99.90;;;;;;5073383;28;20040;-65
2022/01/25 09:52:53;;;;;;;1.60;1.17;;;0.70;99.90;;;;;;5073235;28;20044;-66
2022/01/25 09:55:26;;;;;;;2.67;2.47;;;0.80;99.90;;;;;;5073140;28;20074;-66
2022/01/25 09:57:54;;;;;;;18.70;1.58;;;0.70;99.90;;;;;;5072404;28;20140;-64
2022/01/25 10:00:25;;;;;;;1.15;1.10;;;0.80;99.90;;;;;;5073157;28;20443;-65
2022/01/25 10:03:21;;;;;;;1.38;1.27;;;0.90;99.90;;;;;;5073069;28;20028;-64
2022/01/25 10:05:50;;;;;;;1.23;1.23;;;0.90;99.90;;;;;;5072775;28;20036;-65
2022/01/25 10:08:25;;;;;;;0.45;0.32;;;1.00;99.90;;;;;;5071495;28;20485;-66
2022/01/25 10:11:21;;;;;;;7.68;4.28;;;1.00;99.90;;;;;;5088720;28;20036;-65
2022/01/25 10:13:56;;;;;;;0.70;0.70;;;0.90;99.90;;;;;;5072582;28;20051;-65
2022/01/25 10:16:35;;;;;;;1.75;1.55;;;1.00;99.90;;;;;;5072459;28;20139;-65
2022/01/25 10:19:05;;;;;;;1.17;1.17;;;1.00;99.90;;;;;;5072691;28;20516;-65
2022/01/25 10:21:41;;;;;;;5.53;3.15;;;1.10;99.90;;;;;;5072464;28;20086;-64
2022/01/25 10:24:23;;;;;;;8.80;4.90;;;1.10;99.90;;;;;;5072317;28;20032;-64
2022/01/25 10:26:59;;;;;;;1.88;1.77;;;1.00;99.90;;;;;;5071036;28;20134;-64
2022/01/25 10:29:30;;;;;;;6.00;2.78;;;1.00;99.90;;;;;;5072118;28;20036;-64
2022/01/25 10:32:10;;;;;;;1.33;1.23;;;1.00;99.90;;;;;;5071995;28;20412;-65
2022/01/25 10:34:41;;;;;;;4.43;2.72;;;1.20;99.90;;;;;;5072211;28;20045;-65
2022/01/25 10:37:12;;;;;;;0.20;0.20;;;1.30;99.90;;;;;;5072332;28;20052;-65
2022/01/25 10:39:45;;;;;;;0.10;0.10;;;1.20;99.90;;;;;;5072157;28;20036;-66
2022/01/25 10:42:18;;;;;;;5.15;3.20;;;1.30;99.90;;;;;;5071940;28;20036;-65
2022/01/25 10:45:10;;;;;;;2.08;1.98;;;1.30;99.90;;;;;;5072085;28;20110;-65
2022/01/25 10:47:51;;;;;;;1.15;1.15;;;1.20;99.90;;;;;;5071786;28;20040;-64
2022/01/25 10:50:20;;;;;;;1.65;1.45;;;1.10;99.90;;;;;;5072062;28;20527;-65
2022/01/25 10:53:01;;;;;;;4.07;3.03;;;1.20;99.90;;;;;;5071152;28;20040;-65
2022/01/25 10:55:46;;;;;;;4.70;1.40;;;1.10;99.90;;;;;;5071695;28;20033;-65
2022/01/25 10:58:14;;;;;;;13.15;3.45;;;1.00;99.90;;;;;;5072011;28;20044;-65
2022/01/25 11:00:46;;;;;;;0.22;0.22;;;1.10;99.90;;;;;;5071939;28;20029;-65
2022/01/25 11:03:32;;;;;;;3.17;2.88;;;1.00;99.90;;;;;;5071988;28;20032;-63
2022/01/25 11:06:14;;;;;;;4.38;2.95;;;1.10;99.90;;;;;;5070139;28;20051;-64
2022/01/25 11:08:45;;;;;;;6.45;3.63;;;1.20;99.90;;;;;;5071634;28;20035;-64
2022/01/25 11:11:32;;;;;;;0.97;0.97;;;1.10;99.90;;;;;;5070726;28;20077;-65
2022/01/25 11:14:50;;;;;;;5.93;4.93;;;1.20;99.90;;;;;;5071674;28;20412;-64
2022/01/25 11:16:44;;;;;;;2.95;1.65;;;1.10;99.90;;;;;;5071029;28;20048;-64
2022/01/25 11:19:10;;;;;;;1.00;0.95;;;1.10;99.90;;;;;;5063316;28;20032;-64
2022/01/25 11:21:36;;;;;;;1.02;1.02;;;1.10;99.90;;;;;;5051531;28;20051;-67
2022/01/25 11:24:03;;;;;;;1.80;1.70;;;1.10;99.90;;;;;;5052762;28;20029;-68
2022/01/25 11:26:29;;;;;;;1.23;1.20;;;1.10;99.90;;;;;;5050251;28;20403;-66
2022/01/25 11:28:55;;;;;;;0.73;0.73;;;1.10;99.90;;;;;;5051634;28;20466;-65
2022/01/25 11:31:26;;;;;;;0.73;0.73;;;1.10;99.90;;;;;;5051117;28;20090;-66
2022/01/25 11:33:54;;;;;;;3.28;2.97;;;1.10;99.90;;;;;;5051298;28;20033;-67
2022/01/25 11:36:22;;;;;;;4.85;4.38;;;1.10;99.90;;;;;;5053034;28;20392;-67
2022/01/25 11:38:52;;;;;;;0.38;0.38;;;1.20;99.90;;;;;;5071080;28;20052;-66
2022/01/25 11:41:25;;;;;;;0.25;0.25;;;1.30;99.90;;;;;;5071241;28;20028;-68
2022/01/25 11:44:14;;;;;;;0.80;0.80;;;1.30;99.90;;;;;;5071436;28;20056;-67
2022/01/25 11:46:46;;;;;;;0.77;0.77;;;1.50;99.90;;;;;;5070256;28;20032;-66
2022/01/25 11:49:21;;;;;;;1.83;1.73;;;1.50;99.90;;;;;;5070235;28;20492;-66
2022/01/25 11:52:13;;;;;;;0.95;0.95;;;1.70;99.90;;;;;;5070044;28;20436;-67
2022/01/25 11:54:41;;;;;;;3.08;2.90;;;1.60;99.90;;;;;;5071109;28;20142;-66
2022/01/25 11:57:17;;;;;;;15.95;5.22;;;1.70;99.90;;;;;;5071275;28;20033;-66
2022/01/25 11:59:53;;;;;;;1.48;1.38;;;1.60;99.90;;;;;;5073391;28;20108;-65
2022/01/25 12:02:46;;;;;;;0.55;0.55;;;1.80;99.90;;;;;;5075114;28;20123;-66
2022/01/25 12:05:25;;;;;;;2.15;0.82;;;1.60;99.90;;;;;;5075369;28;20063;-66
2022/01/25 12:08:10;;;;;;;0.60;0.60;;;1.90;99.90;;;;;;5073586;28;20446;-66
2022/01/25 12:10:43;;;;;;;4.22;3.92;;;1.90;99.90;;;;;;5073844;28;20089;-66
2022/01/25 12:13:11;;;;;;;2.05;1.95;;;2.00;99.90;;;;;;5075075;28;20392;-66
2022/01/25 12:15:37;;;;;;;4.22;1.17;;;1.90;99.90;;;;;;5074762;28;20075;-67
2022/01/25 12:18:03;;;;;;;1.98;1.88;;;2.00;99.90;;;;;;5074534;28;20437;-66
2022/01/25 12:20:29;;;;;;;1.90;1.70;;;1.70;99.90;;;;;;5074928;28;20028;-67
2022/01/25 12:23:20;;;;;;;1.58;1.48;;;1.70;99.90;;;;;;5073400;28;20071;-66
2022/01/25 12:25:53;;;;;;;;;;;1.70;99.90;;;;;;5075098;28;20025;-66
2022/01/25 12:28:34;;;;;;;0.50;0.50;;;1.50;99.90;;;;;;5073364;28;20007;-66
2022/01/25 12:31:02;;;;;;;6.22;2.75;;;1.60;99.90;;;;;;5073440;28;20051;-66
2022/01/25 12:33:32;;;;;;;10.43;3.28;;;1.50;99.90;;;;;;5074281;28;20048;-66
2022/01/25 12:36:02;;;;;;;0.22;0.22;;;1.50;99.90;;;;;;5073288;28;20524;-66
2022/01/25 12:38:49;;;;;;;2.88;2.67;;;1.50;99.90;;;;;;5074509;28;20047;-66
2022/01/25 12:41:28;;;;;;;2.03;1.92;;;1.50;99.90;;;;;;5074463;28;20035;-66
2022/01/25 12:44:04;;;;;;;1.77;1.02;;;1.90;99.90;;;;;;5074236;28;20064;-66
2022/01/25 12:46:40;;;;;;;0.75;0.75;;;1.60;99.90;;;;;;5074405;28;20109;-67
2022/01/25 12:49:14;;;;;;;0.20;0.20;;;1.60;99.90;;;;;;5074428;28;20029;-67
2022/01/25 12:51:44;;;;;;;24.95;3.42;;;1.50;99.90;;;;;;5073876;28;20032;-67
2022/01/25 12:54:14;;;;;;;2.35;1.65;;;1.50;99.90;;;;;;5089643;28;20545;-67
2022/01/25 12:56:45;;;;;;;0.22;0.22;;;1.50;99.90;;;;;;5073912;28;20032;-67
2022/01/25 12:59:24;;;;;;;2.45;1.23;;;1.50;99.90;;;;;;5074283;28;20052;-67
2022/01/25 13:01:52;;;;;;;0.35;0.35;;;1.50;99.90;;;;;;5072714;28;20172;-67
2022/01/25 13:04:18;;;;;;;3.55;2.70;;;1.40;99.90;;;;;;5074116;28;20039;-67
2022/01/25 13:06:50;;;;;;;0.50;0.50;;;1.50;99.90;;;;;;5072385;28;20036;-67
2022/01/25 13:09:27;;;;;;;5.50;3.53;;;1.60;99.90;;;;;;5072650;28;20047;-67
2022/01/25 13:17:09;;;;;;;2.40;2.28;;;1.60;99.90;;;;;;5071167;28;20043;-67
2022/01/25 13:19:44;;;;;;;2.03;1.92;;;1.60;99.90;;;;;;5053688;28;20033;-67
2022/01/25 13:22:15;;;;;;;2.55;2.38;;;1.70;99.90;;;;;;5052652;28;20045;-67
2022/01/25 13:25:12;;;;;;;0.20;0.20;;;1.60;99.90;;;;;;5053405;28;20108;-67
2022/01/25 13:28:13;;;;;;;5.60;1.15;;;1.70;99.90;;;;;;5059322;28;20429;-67
2022/01/25 13:30:45;;;;;;;2.25;2.00;;;1.70;99.90;;;;;;5073345;28;20504;-67
2022/01/25 13:33:20;;;;;;;1.17;1.15;;;1.80;99.90;;;;;;5073208;28;20072;-67
2022/01/25 13:35:53;;;;;;;7.53;2.85;;;1.80;99.90;;;;;;5073115;28;20024;-67
2022/01/25 13:38:30;;;;;;;2.30;2.17;;;1.70;99.90;;;;;;5073676;28;20061;-67
2022/01/25 13:41:25;;;;;;;4.28;0.90;;;1.70;99.90;;;;;;5072089;28;20077;-67
2022/01/25 13:46:37;;;;;;;7.70;3.47;;;1.80;99.90;;;;;;5073238;28;20438;-67
2022/01/25 13:49:14;;;;;;;1.50;1.30;;;1.70;99.90;;;;;;5073566;28;20099;-67
2022/01/25 13:51:43;;;;;;;6.75;2.58;;;1.70;99.90;;;;;;5073283;28;20033;-67
2022/01/25 13:54:15;;;;;;;1.27;1.20;;;1.80;99.90;;;;;;5073155;28;20385;-67
2022/01/25 13:56:41;;;;;;;3.63;3.03;;;1.80;99.90;;;;;;5072981;28;20049;-67
2022/01/25 13:59:08;;;;;;;1.65;1.55;;;1.80;99.90;;;;;;5071728;28;20074;-67
2022/01/25 14:01:42;;;;;;;0.17;0.17;;;1.70;99.90;;;;;;5073182;28;20074;-67
2022/01/25 14:04:15;;;;;;;0.57;0.57;;;1.80;99.90;;;;;;5073145;28;20029;-67
2022/01/25 14:06:52;;;;;;;0.45;0.45;;;1.70;99.90;;;;;;5071621;28;20052;-66
2022/01/25 14:09:41;;;;;;;6.13;4.68;;;1.70;99.90;;;;;;5072548;28;20371;-66
2022/01/25 14:23:24;;;;;;;2.88;2.63;;;1.60;99.90;;;;;;5071533;28;20036;-68
2022/01/25 14:26:06;;;;;;;0.98;0.95;;;1.60;99.90;;;;;;5071105;28;20035;-68
2022/01/25 14:28:39;;;;;;;0.47;0.47;;;1.60;99.90;;;;;;5072353;28;20496;-66
2022/01/25 14:31:20;;;;;;;1.63;1.60;;;1.50;99.90;;;;;;5072748;28;20024;-66
2022/01/25 14:34:01;;;;;;;3.20;2.72;;;1.50;99.90;;;;;;5072376;28;20102;-67
2022/01/25 14:36:30;;;;;;;5.47;2.22;;;1.60;99.90;;;;;;5037948;28;20366;-67
2022/01/25 14:38:58;;;;;;;0.57;0.57;;;1.50;99.90;;;;;;5072301;28;20077;-67
2022/01/25 14:41:31;;;;;;;0.65;0.65;;;1.60;99.90;;;;;;5072486;28;20036;-68
2022/01/25 14:44:04;;;;;;;4.10;3.38;;;1.60;99.90;;;;;;5072072;28;20366;-67
2022/01/25 14:46:47;;;;;;;6.95;3.75;;;1.50;99.90;;;;;;5072142;28;20111;-67
2022/01/25 14:49:29;;;;;;;3.45;3.17;;;1.40;99.90;;;;;;5072377;28;20032;-67
2022/01/25 14:52:04;;;;;;;0.30;0.30;;;1.50;99.90;;;;;;5071750;28;20032;-66
2022/01/25 14:54:36;;;;;;;9.23;5.18;;;1.50;99.90;;;;;;5071122;28;20025;-67